Sault Ste Marie, Canada
Current Conditions -  °F | °C
As of 11:55 AM on Monday 22 Dec 2014 (Local Time) from KANJ Reporting Station
Overcast Overcast  
Wind Chill: 25°   Ceiling: 4900
Heat Index: 33°   Visibility: 8mi
Dew Point: 27°   Wind: 10mph
Humidity: 78%   Direction: 150°SSE
Pressure: 30.03"   Gusts: 22mph
Location:  46.52°N, 84.35°W
Report Text: KANJ 221655Z AUTO 15009G19KT 8SM OVC049 01/M03 A3003 RMK AO2 SLP175 T00061028
Loading
Personal Weather Stations






























Interactive Weather Map New forecast layout! Learn more

10-Day Weather Forecast

Advertisements
Track Severe Weather on mobile